sensor_id;sensor_type;location;lat;lon;timestamp;P1;durP1;ratioP1;P2;durP2;ratioP2
13325;SDS011;6732;51.044;3.746;2022-08-19T00:00:29;37.83;;;26.38;;
13325;SDS011;6732;51.044;3.746;2022-08-19T00:03:06;35.13;;;24.92;;
13325;SDS011;6732;51.044;3.746;2022-08-19T00:05:32;36.38;;;26.08;;
13325;SDS011;6732;51.044;3.746;2022-08-19T00:07:58;36.00;;;24.95;;
13325;SDS011;6732;51.044;3.746;2022-08-19T00:10:24;32.42;;;23.48;;
13325;SDS011;6732;51.044;3.746;2022-08-19T00:12:50;35.67;;;24.13;;
13325;SDS011;6732;51.044;3.746;2022-08-19T00:15:17;37.47;;;25.17;;
13325;SDS011;6732;51.044;3.746;2022-08-19T00:17:45;34.70;;;24.77;;
13325;SDS011;6732;51.044;3.746;2022-08-19T00:20:13;32.58;;;24.75;;
13325;SDS011;6732;51.044;3.746;2022-08-19T00:22:42;31.52;;;22.38;;
13325;SDS011;6732;51.044;3.746;2022-08-19T00:25:09;30.73;;;22.40;;
13325;SDS011;6732;51.044;3.746;2022-08-19T00:27:36;30.10;;;23.17;;
13325;SDS011;6732;51.044;3.746;2022-08-19T00:30:04;31.77;;;21.98;;
13325;SDS011;6732;51.044;3.746;2022-08-19T00:32:31;28.67;;;20.48;;
13325;SDS011;6732;51.044;3.746;2022-08-19T00:34:58;30.80;;;22.17;;
13325;SDS011;6732;51.044;3.746;2022-08-19T00:37:24;28.67;;;21.08;;
13325;SDS011;6732;51.044;3.746;2022-08-19T00:39:51;30.73;;;22.02;;
13325;SDS011;6732;51.044;3.746;2022-08-19T00:42:18;33.00;;;23.77;;
13325;SDS011;6732;51.044;3.746;2022-08-19T00:44:46;34.40;;;23.65;;
13325;SDS011;6732;51.044;3.746;2022-08-19T00:47:12;32.03;;;23.55;;
13325;SDS011;6732;51.044;3.746;2022-08-19T00:49:52;32.08;;;22.45;;
13325;SDS011;6732;51.044;3.746;2022-08-19T00:52:23;30.33;;;22.08;;
13325;SDS011;6732;51.044;3.746;2022-08-19T00:54:54;35.22;;;23.17;;
13325;SDS011;6732;51.044;3.746;2022-08-19T00:57:33;32.63;;;23.02;;
13325;SDS011;6732;51.044;3.746;2022-08-19T01:00:04;31.58;;;22.50;;
13325;SDS011;6732;51.044;3.746;2022-08-19T01:02:36;25.52;;;18.98;;
13325;SDS011;6732;51.044;3.746;2022-08-19T01:05:05;29.80;;;19.65;;
13325;SDS011;6732;51.044;3.746;2022-08-19T01:07:34;27.35;;;20.50;;
13325;SDS011;6732;51.044;3.746;2022-08-19T01:10:03;28.42;;;20.77;;
13325;SDS011;6732;51.044;3.746;2022-08-19T01:12:31;26.67;;;19.10;;
13325;SDS011;6732;51.044;3.746;2022-08-19T01:14:58;24.45;;;17.60;;
13325;SDS011;6732;51.044;3.746;2022-08-19T01:17:24;29.15;;;20.65;;
13325;SDS011;6732;51.044;3.746;2022-08-19T01:19:51;27.77;;;18.55;;
13325;SDS011;6732;51.044;3.746;2022-08-19T01:24:49;23.25;;;18.33;;
13325;SDS011;6732;51.044;3.746;2022-08-19T01:27:16;25.42;;;18.05;;
13325;SDS011;6732;51.044;3.746;2022-08-19T01:29:43;29.20;;;18.65;;
13325;SDS011;6732;51.044;3.746;2022-08-19T01:32:14;24.20;;;17.90;;
13325;SDS011;6732;51.044;3.746;2022-08-19T01:34:41;25.90;;;18.65;;
13325;SDS011;6732;51.044;3.746;2022-08-19T01:37:12;23.98;;;17.65;;
13325;SDS011;6732;51.044;3.746;2022-08-19T01:39:39;22.25;;;16.88;;
13325;SDS011;6732;51.044;3.746;2022-08-19T01:42:07;23.17;;;17.00;;
13325;SDS011;6732;51.044;3.746;2022-08-19T01:44:36;24.30;;;17.15;;
13325;SDS011;6732;51.044;3.746;2022-08-19T01:47:04;39.83;;;16.95;;
13325;SDS011;6732;51.044;3.746;2022-08-19T01:49:30;20.30;;;15.15;;
13325;SDS011;6732;51.044;3.746;2022-08-19T01:51:57;24.85;;;15.90;;
13325;SDS011;6732;51.044;3.746;2022-08-19T01:54:25;22.20;;;15.75;;
13325;SDS011;6732;51.044;3.746;2022-08-19T01:56:51;23.52;;;16.13;;
13325;SDS011;6732;51.044;3.746;2022-08-19T01:59:26;23.33;;;15.68;;
13325;SDS011;6732;51.044;3.746;2022-08-19T02:01:53;20.13;;;15.63;;
13325;SDS011;6732;51.044;3.746;2022-08-19T02:04:19;21.92;;;15.05;;
13325;SDS011;6732;51.044;3.746;2022-08-19T02:06:46;20.35;;;15.38;;
13325;SDS011;6732;51.044;3.746;2022-08-19T02:09:13;24.27;;;16.10;;
13325;SDS011;6732;51.044;3.746;2022-08-19T02:11:39;19.88;;;14.32;;
13325;SDS011;6732;51.044;3.746;2022-08-19T02:14:07;20.40;;;14.15;;
13325;SDS011;6732;51.044;3.746;2022-08-19T02:16:34;21.08;;;14.68;;
13325;SDS011;6732;51.044;3.746;2022-08-19T02:19:00;23.05;;;14.60;;
13325;SDS011;6732;51.044;3.746;2022-08-19T02:21:27;24.60;;;14.60;;
13325;SDS011;6732;51.044;3.746;2022-08-19T02:23:53;22.00;;;13.88;;
13325;SDS011;6732;51.044;3.746;2022-08-19T02:26:20;21.35;;;14.10;;
13325;SDS011;6732;51.044;3.746;2022-08-19T02:28:46;21.70;;;14.02;;
13325;SDS011;6732;51.044;3.746;2022-08-19T02:31:18;21.65;;;14.30;;
13325;SDS011;6732;51.044;3.746;2022-08-19T02:33:46;20.23;;;13.45;;
13325;SDS011;6732;51.044;3.746;2022-08-19T02:36:13;25.92;;;14.80;;
13325;SDS011;6732;51.044;3.746;2022-08-19T02:38:41;22.35;;;14.15;;
13325;SDS011;6732;51.044;3.746;2022-08-19T02:41:14;21.83;;;14.43;;
13325;SDS011;6732;51.044;3.746;2022-08-19T02:43:43;21.63;;;14.57;;
13325;SDS011;6732;51.044;3.746;2022-08-19T02:48:39;21.38;;;15.70;;
13325;SDS011;6732;51.044;3.746;2022-08-19T02:51:05;24.83;;;15.70;;
13325;SDS011;6732;51.044;3.746;2022-08-19T02:53:31;23.30;;;14.77;;
13325;SDS011;6732;51.044;3.746;2022-08-19T02:55:57;22.20;;;14.90;;
13325;SDS011;6732;51.044;3.746;2022-08-19T02:58:23;19.73;;;14.75;;
13325;SDS011;6732;51.044;3.746;2022-08-19T03:00:52;22.48;;;13.50;;
13325;SDS011;6732;51.044;3.746;2022-08-19T03:03:20;22.65;;;14.30;;
13325;SDS011;6732;51.044;3.746;2022-08-19T03:05:46;22.98;;;14.55;;
13325;SDS011;6732;51.044;3.746;2022-08-19T03:08:13;20.88;;;14.10;;
13325;SDS011;6732;51.044;3.746;2022-08-19T03:10:40;20.52;;;13.88;;
13325;SDS011;6732;51.044;3.746;2022-08-19T03:13:11;21.33;;;14.00;;
13325;SDS011;6732;51.044;3.746;2022-08-19T03:15:39;22.60;;;14.05;;
13325;SDS011;6732;51.044;3.746;2022-08-19T03:18:06;21.90;;;13.65;;
13325;SDS011;6732;51.044;3.746;2022-08-19T03:20:33;18.00;;;13.00;;
13325;SDS011;6732;51.044;3.746;2022-08-19T03:22:59;19.17;;;13.10;;
13325;SDS011;6732;51.044;3.746;2022-08-19T03:25:25;21.55;;;13.32;;
13325;SDS011;6732;51.044;3.746;2022-08-19T03:27:50;17.20;;;11.98;;
13325;SDS011;6732;51.044;3.746;2022-08-19T03:30:16;17.77;;;12.50;;
13325;SDS011;6732;51.044;3.746;2022-08-19T03:32:42;22.38;;;13.10;;
13325;SDS011;6732;51.044;3.746;2022-08-19T03:35:09;17.83;;;12.50;;
13325;SDS011;6732;51.044;3.746;2022-08-19T03:37:34;19.35;;;11.90;;
13325;SDS011;6732;51.044;3.746;2022-08-19T03:40:00;20.00;;;11.98;;
13325;SDS011;6732;51.044;3.746;2022-08-19T03:42:29;22.88;;;11.98;;
13325;SDS011;6732;51.044;3.746;2022-08-19T03:44:55;17.75;;;11.88;;
13325;SDS011;6732;51.044;3.746;2022-08-19T03:47:21;17.08;;;11.98;;
13325;SDS011;6732;51.044;3.746;2022-08-19T03:49:46;17.30;;;11.20;;
13325;SDS011;6732;51.044;3.746;2022-08-19T03:52:12;13.88;;;10.25;;
13325;SDS011;6732;51.044;3.746;2022-08-19T03:54:39;20.55;;;11.32;;
13325;SDS011;6732;51.044;3.746;2022-08-19T03:57:05;20.50;;;11.30;;
13325;SDS011;6732;51.044;3.746;2022-08-19T03:59:32;14.35;;;10.57;;
13325;SDS011;6732;51.044;3.746;2022-08-19T04:02:01;15.20;;;10.23;;
13325;SDS011;6732;51.044;3.746;2022-08-19T04:04:31;16.52;;;10.35;;
13325;SDS011;6732;51.044;3.746;2022-08-19T04:06:57;16.58;;;10.73;;
13325;SDS011;6732;51.044;3.746;2022-08-19T04:09:23;15.95;;;10.25;;
13325;SDS011;6732;51.044;3.746;2022-08-19T04:11:51;16.83;;;10.63;;
13325;SDS011;6732;51.044;3.746;2022-08-19T04:14:23;15.18;;;10.18;;
13325;SDS011;6732;51.044;3.746;2022-08-19T04:16:51;16.17;;;10.30;;
13325;SDS011;6732;51.044;3.746;2022-08-19T04:19:18;17.67;;;10.55;;
13325;SDS011;6732;51.044;3.746;2022-08-19T04:21:45;16.02;;;10.00;;
13325;SDS011;6732;51.044;3.746;2022-08-19T04:24:13;13.70;;;9.75;;
13325;SDS011;6732;51.044;3.746;2022-08-19T04:26:39;14.40;;;9.73;;
13325;SDS011;6732;51.044;3.746;2022-08-19T04:29:07;15.13;;;9.88;;
13325;SDS011;6732;51.044;3.746;2022-08-19T04:31:39;12.07;;;9.15;;
13325;SDS011;6732;51.044;3.746;2022-08-19T04:34:08;13.77;;;9.23;;
13325;SDS011;6732;51.044;3.746;2022-08-19T04:36:36;14.50;;;10.43;;
13325;SDS011;6732;51.044;3.746;2022-08-19T04:39:06;12.10;;;8.23;;
13325;SDS011;6732;51.044;3.746;2022-08-19T04:41:34;13.00;;;9.35;;
13325;SDS011;6732;51.044;3.746;2022-08-19T04:44:19;11.35;;;8.82;;
13325;SDS011;6732;51.044;3.746;2022-08-19T04:46:46;14.50;;;10.00;;
13325;SDS011;6732;51.044;3.746;2022-08-19T04:49:13;14.68;;;9.30;;
13325;SDS011;6732;51.044;3.746;2022-08-19T04:51:41;16.55;;;9.57;;
13325;SDS011;6732;51.044;3.746;2022-08-19T04:54:09;16.23;;;9.27;;
13325;SDS011;6732;51.044;3.746;2022-08-19T04:56:35;15.30;;;9.85;;
13325;SDS011;6732;51.044;3.746;2022-08-19T04:59:01;12.65;;;9.30;;
13325;SDS011;6732;51.044;3.746;2022-08-19T05:01:31;14.25;;;9.57;;
13325;SDS011;6732;51.044;3.746;2022-08-19T05:03:59;14.55;;;8.75;;
13325;SDS011;6732;51.044;3.746;2022-08-19T05:06:26;14.65;;;9.38;;
13325;SDS011;6732;51.044;3.746;2022-08-19T05:08:54;15.82;;;9.48;;
13325;SDS011;6732;51.044;3.746;2022-08-19T05:11:27;13.10;;;8.32;;
13325;SDS011;6732;51.044;3.746;2022-08-19T05:13:55;13.85;;;8.63;;
13325;SDS011;6732;51.044;3.746;2022-08-19T05:16:23;13.63;;;8.48;;
13325;SDS011;6732;51.044;3.746;2022-08-19T05:18:50;13.30;;;8.52;;
13325;SDS011;6732;51.044;3.746;2022-08-19T05:21:35;13.07;;;8.65;;
13325;SDS011;6732;51.044;3.746;2022-08-19T05:24:21;14.98;;;8.73;;
13325;SDS011;6732;51.044;3.746;2022-08-19T05:26:49;13.85;;;9.07;;
13325;SDS011;6732;51.044;3.746;2022-08-19T05:29:19;12.98;;;7.82;;
13325;SDS011;6732;51.044;3.746;2022-08-19T05:31:47;14.13;;;9.02;;
13325;SDS011;6732;51.044;3.746;2022-08-19T05:34:17;13.60;;;8.27;;
13325;SDS011;6732;51.044;3.746;2022-08-19T05:36:47;15.65;;;8.70;;
13325;SDS011;6732;51.044;3.746;2022-08-19T05:39:17;11.52;;;7.95;;
13325;SDS011;6732;51.044;3.746;2022-08-19T05:41:45;12.18;;;7.93;;
13325;SDS011;6732;51.044;3.746;2022-08-19T05:44:15;15.60;;;8.50;;
13325;SDS011;6732;51.044;3.746;2022-08-19T05:46:45;12.10;;;8.70;;
13325;SDS011;6732;51.044;3.746;2022-08-19T05:49:14;12.07;;;8.55;;
13325;SDS011;6732;51.044;3.746;2022-08-19T05:51:41;13.52;;;8.15;;
13325;SDS011;6732;51.044;3.746;2022-08-19T05:54:07;13.40;;;8.50;;
13325;SDS011;6732;51.044;3.746;2022-08-19T05:56:34;13.85;;;8.68;;
13325;SDS011;6732;51.044;3.746;2022-08-19T05:59:06;14.38;;;8.70;;
13325;SDS011;6732;51.044;3.746;2022-08-19T06:01:35;18.25;;;9.07;;
13325;SDS011;6732;51.044;3.746;2022-08-19T06:04:03;12.65;;;8.90;;
13325;SDS011;6732;51.044;3.746;2022-08-19T06:06:30;14.30;;;9.07;;
13325;SDS011;6732;51.044;3.746;2022-08-19T06:08:56;16.60;;;9.05;;
13325;SDS011;6732;51.044;3.746;2022-08-19T06:11:23;13.38;;;8.43;;
13325;SDS011;6732;51.044;3.746;2022-08-19T06:13:59;15.48;;;9.02;;
13325;SDS011;6732;51.044;3.746;2022-08-19T06:16:27;14.75;;;9.43;;
13325;SDS011;6732;51.044;3.746;2022-08-19T06:18:54;12.70;;;8.30;;
13325;SDS011;6732;51.044;3.746;2022-08-19T06:21:23;16.98;;;8.90;;
13325;SDS011;6732;51.044;3.746;2022-08-19T06:23:52;15.68;;;8.85;;
13325;SDS011;6732;51.044;3.746;2022-08-19T06:26:19;11.15;;;8.13;;
13325;SDS011;6732;51.044;3.746;2022-08-19T06:28:46;13.95;;;8.52;;
13325;SDS011;6732;51.044;3.746;2022-08-19T06:31:14;13.73;;;8.02;;
13325;SDS011;6732;51.044;3.746;2022-08-19T06:33:42;15.35;;;8.98;;
13325;SDS011;6732;51.044;3.746;2022-08-19T06:36:44;15.68;;;9.15;;
13325;SDS011;6732;51.044;3.746;2022-08-19T06:39:08;11.52;;;7.72;;
13325;SDS011;6732;51.044;3.746;2022-08-19T06:41:55;10.57;;;7.38;;
13325;SDS011;6732;51.044;3.746;2022-08-19T06:44:25;13.07;;;7.93;;
13325;SDS011;6732;51.044;3.746;2022-08-19T06:46:54;11.20;;;8.70;;
13325;SDS011;6732;51.044;3.746;2022-08-19T06:49:21;18.40;;;7.63;;
13325;SDS011;6732;51.044;3.746;2022-08-19T06:51:48;12.10;;;7.78;;
13325;SDS011;6732;51.044;3.746;2022-08-19T06:54:15;11.55;;;7.68;;
13325;SDS011;6732;51.044;3.746;2022-08-19T06:56:43;17.35;;;7.93;;
13325;SDS011;6732;51.044;3.746;2022-08-19T06:59:11;13.45;;;8.15;;
13325;SDS011;6732;51.044;3.746;2022-08-19T07:01:41;13.13;;;7.72;;
13325;SDS011;6732;51.044;3.746;2022-08-19T07:04:11;12.32;;;7.47;;
13325;SDS011;6732;51.044;3.746;2022-08-19T07:06:37;10.27;;;7.18;;
13325;SDS011;6732;51.044;3.746;2022-08-19T07:09:04;11.55;;;7.32;;
13325;SDS011;6732;51.044;3.746;2022-08-19T07:11:31;13.40;;;7.82;;
13325;SDS011;6732;51.044;3.746;2022-08-19T07:13:58;13.05;;;7.63;;
13325;SDS011;6732;51.044;3.746;2022-08-19T07:16:25;11.18;;;7.30;;
13325;SDS011;6732;51.044;3.746;2022-08-19T07:18:53;14.05;;;7.65;;
13325;SDS011;6732;51.044;3.746;2022-08-19T07:21:24;11.50;;;7.47;;
13325;SDS011;6732;51.044;3.746;2022-08-19T07:23:53;14.20;;;7.55;;
13325;SDS011;6732;51.044;3.746;2022-08-19T07:26:21;9.88;;;6.78;;
13325;SDS011;6732;51.044;3.746;2022-08-19T07:28:50;11.60;;;7.18;;
13325;SDS011;6732;51.044;3.746;2022-08-19T07:31:17;11.80;;;7.32;;
13325;SDS011;6732;51.044;3.746;2022-08-19T07:33:48;11.52;;;7.22;;
13325;SDS011;6732;51.044;3.746;2022-08-19T07:36:16;10.55;;;7.53;;
13325;SDS011;6732;51.044;3.746;2022-08-19T07:38:45;11.77;;;7.15;;
13325;SDS011;6732;51.044;3.746;2022-08-19T07:41:15;12.18;;;7.22;;
13325;SDS011;6732;51.044;3.746;2022-08-19T07:43:44;13.85;;;6.82;;
13325;SDS011;6732;51.044;3.746;2022-08-19T07:46:11;10.60;;;7.00;;
13325;SDS011;6732;51.044;3.746;2022-08-19T07:48:39;8.60;;;6.85;;
13325;SDS011;6732;51.044;3.746;2022-08-19T07:51:12;12.02;;;7.65;;
13325;SDS011;6732;51.044;3.746;2022-08-19T07:53:40;11.60;;;7.55;;
13325;SDS011;6732;51.044;3.746;2022-08-19T07:56:08;10.88;;;7.43;;
13325;SDS011;6732;51.044;3.746;2022-08-19T07:58:36;13.38;;;7.72;;
13325;SDS011;6732;51.044;3.746;2022-08-19T08:01:08;13.55;;;7.72;;
13325;SDS011;6732;51.044;3.746;2022-08-19T08:03:37;12.88;;;8.13;;
13325;SDS011;6732;51.044;3.746;2022-08-19T08:06:21;14.55;;;8.05;;
13325;SDS011;6732;51.044;3.746;2022-08-19T08:09:06;14.25;;;8.10;;
13325;SDS011;6732;51.044;3.746;2022-08-19T08:11:37;12.18;;;8.30;;
13325;SDS011;6732;51.044;3.746;2022-08-19T08:14:14;11.40;;;7.25;;
13325;SDS011;6732;51.044;3.746;2022-08-19T08:16:48;12.13;;;7.65;;
13325;SDS011;6732;51.044;3.746;2022-08-19T08:19:25;12.85;;;8.20;;
13325;SDS011;6732;51.044;3.746;2022-08-19T08:21:56;11.15;;;7.82;;
13325;SDS011;6732;51.044;3.746;2022-08-19T08:24:24;12.10;;;7.68;;
13325;SDS011;6732;51.044;3.746;2022-08-19T08:26:52;11.35;;;7.22;;
13325;SDS011;6732;51.044;3.746;2022-08-19T08:29:18;12.10;;;7.00;;
13325;SDS011;6732;51.044;3.746;2022-08-19T08:31:45;12.35;;;7.43;;
13325;SDS011;6732;51.044;3.746;2022-08-19T08:34:14;12.15;;;7.47;;
13325;SDS011;6732;51.044;3.746;2022-08-19T08:36:41;10.40;;;7.30;;
13325;SDS011;6732;51.044;3.746;2022-08-19T08:39:11;13.65;;;8.38;;
13325;SDS011;6732;51.044;3.746;2022-08-19T08:47:36;15.98;;;8.00;;
13325;SDS011;6732;51.044;3.746;2022-08-19T08:50:06;11.90;;;8.10;;
13325;SDS011;6732;51.044;3.746;2022-08-19T08:53:01;11.10;;;7.85;;
13325;SDS011;6732;51.044;3.746;2022-08-19T08:55:30;13.45;;;7.93;;
13325;SDS011;6732;51.044;3.746;2022-08-19T08:58:07;12.23;;;8.30;;
13325;SDS011;6732;51.044;3.746;2022-08-19T09:00:43;12.32;;;8.18;;
13325;SDS011;6732;51.044;3.746;2022-08-19T09:03:18;11.15;;;8.40;;
13325;SDS011;6732;51.044;3.746;2022-08-19T09:08:31;9.05;;;7.38;;
13325;SDS011;6732;51.044;3.746;2022-08-19T09:11:06;9.93;;;7.07;;
13325;SDS011;6732;51.044;3.746;2022-08-19T09:16:25;9.52;;;7.45;;
13325;SDS011;6732;51.044;3.746;2022-08-19T09:18:54;12.38;;;7.57;;
13325;SDS011;6732;51.044;3.746;2022-08-19T09:21:24;10.00;;;6.90;;
13325;SDS011;6732;51.044;3.746;2022-08-19T09:23:51;8.77;;;6.40;;
13325;SDS011;6732;51.044;3.746;2022-08-19T09:26:18;10.25;;;5.55;;
13325;SDS011;6732;51.044;3.746;2022-08-19T09:28:48;6.63;;;5.53;;
13325;SDS011;6732;51.044;3.746;2022-08-19T09:31:17;6.50;;;5.32;;
13325;SDS011;6732;51.044;3.746;2022-08-19T09:33:45;8.00;;;5.30;;
13325;SDS011;6732;51.044;3.746;2022-08-19T09:36:13;6.90;;;5.45;;
13325;SDS011;6732;51.044;3.746;2022-08-19T09:38:41;10.10;;;5.18;;
13325;SDS011;6732;51.044;3.746;2022-08-19T09:41:09;7.68;;;4.88;;
13325;SDS011;6732;51.044;3.746;2022-08-19T09:43:39;6.03;;;4.30;;
13325;SDS011;6732;51.044;3.746;2022-08-19T09:46:07;5.88;;;4.45;;
13325;SDS011;6732;51.044;3.746;2022-08-19T09:48:38;5.25;;;4.28;;
13325;SDS011;6732;51.044;3.746;2022-08-19T09:51:06;6.80;;;4.30;;
13325;SDS011;6732;51.044;3.746;2022-08-19T09:53:41;5.30;;;4.15;;
13325;SDS011;6732;51.044;3.746;2022-08-19T09:56:11;6.40;;;4.47;;
13325;SDS011;6732;51.044;3.746;2022-08-19T09:58:38;4.95;;;4.30;;
13325;SDS011;6732;51.044;3.746;2022-08-19T10:01:05;6.63;;;4.10;;
13325;SDS011;6732;51.044;3.746;2022-08-19T10:03:32;4.80;;;4.30;;
13325;SDS011;6732;51.044;3.746;2022-08-19T10:06:01;6.60;;;4.45;;
13325;SDS011;6732;51.044;3.746;2022-08-19T10:08:29;7.95;;;4.80;;
13325;SDS011;6732;51.044;3.746;2022-08-19T10:10:58;5.70;;;4.78;;
13325;SDS011;6732;51.044;3.746;2022-08-19T10:13:26;5.30;;;4.80;;
13325;SDS011;6732;51.044;3.746;2022-08-19T10:15:56;5.40;;;4.45;;
13325;SDS011;6732;51.044;3.746;2022-08-19T10:18:34;5.70;;;5.20;;
13325;SDS011;6732;51.044;3.746;2022-08-19T10:21:03;6.07;;;5.00;;
13325;SDS011;6732;51.044;3.746;2022-08-19T10:23:34;5.72;;;4.75;;
13325;SDS011;6732;51.044;3.746;2022-08-19T10:26:02;5.18;;;4.43;;
13325;SDS011;6732;51.044;3.746;2022-08-19T10:28:32;6.15;;;4.72;;
13325;SDS011;6732;51.044;3.746;2022-08-19T10:31:02;4.57;;;4.03;;
13325;SDS011;6732;51.044;3.746;2022-08-19T10:33:30;3.85;;;3.45;;
13325;SDS011;6732;51.044;3.746;2022-08-19T10:36:00;4.45;;;4.03;;
13325;SDS011;6732;51.044;3.746;2022-08-19T10:38:27;5.07;;;3.75;;
13325;SDS011;6732;51.044;3.746;2022-08-19T10:40:54;4.50;;;4.10;;
13325;SDS011;6732;51.044;3.746;2022-08-19T10:43:20;5.30;;;4.18;;
13325;SDS011;6732;51.044;3.746;2022-08-19T10:45:53;5.20;;;4.65;;
13325;SDS011;6732;51.044;3.746;2022-08-19T10:48:23;5.07;;;4.60;;
13325;SDS011;6732;51.044;3.746;2022-08-19T10:50:50;4.40;;;4.00;;
13325;SDS011;6732;51.044;3.746;2022-08-19T10:53:34;4.70;;;4.30;;
13325;SDS011;6732;51.044;3.746;2022-08-19T10:56:00;5.28;;;4.78;;
13325;SDS011;6732;51.044;3.746;2022-08-19T10:58:44;4.97;;;4.47;;
13325;SDS011;6732;51.044;3.746;2022-08-19T11:01:10;7.47;;;4.93;;
13325;SDS011;6732;51.044;3.746;2022-08-19T11:03:36;7.57;;;4.53;;
13325;SDS011;6732;51.044;3.746;2022-08-19T11:06:04;4.85;;;4.30;;
13325;SDS011;6732;51.044;3.746;2022-08-19T11:08:32;8.00;;;3.95;;
13325;SDS011;6732;51.044;3.746;2022-08-19T11:11:00;8.77;;;4.28;;
13325;SDS011;6732;51.044;3.746;2022-08-19T11:13:29;4.55;;;4.15;;
13325;SDS011;6732;51.044;3.746;2022-08-19T11:15:59;5.50;;;4.85;;
13325;SDS011;6732;51.044;3.746;2022-08-19T11:18:27;4.72;;;4.32;;
13325;SDS011;6732;51.044;3.746;2022-08-19T11:20:53;5.60;;;4.43;;
13325;SDS011;6732;51.044;3.746;2022-08-19T11:23:19;4.38;;;3.47;;
13325;SDS011;6732;51.044;3.746;2022-08-19T11:25:45;4.88;;;3.45;;
13325;SDS011;6732;51.044;3.746;2022-08-19T11:28:12;3.55;;;3.25;;
13325;SDS011;6732;51.044;3.746;2022-08-19T11:30:38;3.85;;;2.80;;
13325;SDS011;6732;51.044;3.746;2022-08-19T11:33:04;4.32;;;2.42;;
13325;SDS011;6732;51.044;3.746;2022-08-19T11:35:30;3.55;;;2.35;;
13325;SDS011;6732;51.044;3.746;2022-08-19T11:37:57;2.53;;;2.28;;
13325;SDS011;6732;51.044;3.746;2022-08-19T11:40:26;5.00;;;2.75;;
13325;SDS011;6732;51.044;3.746;2022-08-19T11:42:52;5.03;;;2.50;;
13325;SDS011;6732;51.044;3.746;2022-08-19T11:45:22;2.65;;;2.03;;
13325;SDS011;6732;51.044;3.746;2022-08-19T11:47:52;2.35;;;1.92;;
13325;SDS011;6732;51.044;3.746;2022-08-19T11:50:19;2.42;;;1.92;;
13325;SDS011;6732;51.044;3.746;2022-08-19T11:52:45;2.70;;;1.92;;
13325;SDS011;6732;51.044;3.746;2022-08-19T11:55:12;2.20;;;2.00;;
13325;SDS011;6732;51.044;3.746;2022-08-19T11:57:39;1.35;;;1.25;;
13325;SDS011;6732;51.044;3.746;2022-08-19T12:00:08;2.28;;;1.45;;
13325;SDS011;6732;51.044;3.746;2022-08-19T12:02:37;2.58;;;1.42;;
13325;SDS011;6732;51.044;3.746;2022-08-19T12:05:04;1.58;;;1.30;;
13325;SDS011;6732;51.044;3.746;2022-08-19T12:07:31;2.00;;;1.15;;
13325;SDS011;6732;51.044;3.746;2022-08-19T12:09:59;1.55;;;1.05;;
13325;SDS011;6732;51.044;3.746;2022-08-19T12:12:26;1.80;;;1.00;;
13325;SDS011;6732;51.044;3.746;2022-08-19T12:14:53;2.83;;;1.10;;
13325;SDS011;6732;51.044;3.746;2022-08-19T12:17:22;2.10;;;1.50;;
13325;SDS011;6732;51.044;3.746;2022-08-19T12:19:49;2.80;;;1.63;;
13325;SDS011;6732;51.044;3.746;2022-08-19T12:22:15;2.30;;;1.33;;
13325;SDS011;6732;51.044;3.746;2022-08-19T12:24:41;3.28;;;2.08;;
13325;SDS011;6732;51.044;3.746;2022-08-19T12:27:06;3.42;;;2.08;;
13325;SDS011;6732;51.044;3.746;2022-08-19T12:29:32;2.53;;;2.30;;
13325;SDS011;6732;51.044;3.746;2022-08-19T12:31:59;2.50;;;2.30;;
13325;SDS011;6732;51.044;3.746;2022-08-19T12:34:28;3.95;;;2.92;;
13325;SDS011;6732;51.044;3.746;2022-08-19T12:36:58;4.50;;;2.63;;
13325;SDS011;6732;51.044;3.746;2022-08-19T12:39:26;3.33;;;2.28;;
13325;SDS011;6732;51.044;3.746;2022-08-19T12:41:52;2.50;;;1.90;;
13325;SDS011;6732;51.044;3.746;2022-08-19T12:44:18;6.65;;;2.33;;
13325;SDS011;6732;51.044;3.746;2022-08-19T12:46:44;2.47;;;1.52;;
13325;SDS011;6732;51.044;3.746;2022-08-19T12:49:11;3.78;;;1.70;;
13325;SDS011;6732;51.044;3.746;2022-08-19T12:51:37;2.92;;;1.85;;
13325;SDS011;6732;51.044;3.746;2022-08-19T12:54:03;2.47;;;2.03;;
13325;SDS011;6732;51.044;3.746;2022-08-19T12:56:30;2.78;;;1.92;;
13325;SDS011;6732;51.044;3.746;2022-08-19T12:58:56;3.70;;;1.65;;
13325;SDS011;6732;51.044;3.746;2022-08-19T13:01:22;3.40;;;1.80;;
13325;SDS011;6732;51.044;3.746;2022-08-19T13:03:48;3.10;;;1.85;;
13325;SDS011;6732;51.044;3.746;2022-08-19T13:06:17;3.70;;;1.98;;
13325;SDS011;6732;51.044;3.746;2022-08-19T13:08:43;2.40;;;2.20;;
13325;SDS011;6732;51.044;3.746;2022-08-19T13:11:13;2.22;;;1.80;;
13325;SDS011;6732;51.044;3.746;2022-08-19T13:13:42;3.97;;;2.20;;
13325;SDS011;6732;51.044;3.746;2022-08-19T13:16:09;2.75;;;1.70;;
13325;SDS011;6732;51.044;3.746;2022-08-19T13:18:37;3.08;;;1.80;;
13325;SDS011;6732;51.044;3.746;2022-08-19T13:21:04;4.40;;;1.90;;
13325;SDS011;6732;51.044;3.746;2022-08-19T13:23:32;8.75;;;2.58;;
13325;SDS011;6732;51.044;3.746;2022-08-19T13:26:00;8.73;;;2.17;;
13325;SDS011;6732;51.044;3.746;2022-08-19T13:28:28;13.90;;;3.15;;
13325;SDS011;6732;51.044;3.746;2022-08-19T13:31:18;5.35;;;2.33;;
13325;SDS011;6732;51.044;3.746;2022-08-19T13:34:04;4.45;;;1.80;;
13325;SDS011;6732;51.044;3.746;2022-08-19T13:36:31;8.05;;;2.17;;
13325;SDS011;6732;51.044;3.746;2022-08-19T13:38:58;5.78;;;1.80;;
13325;SDS011;6732;51.044;3.746;2022-08-19T13:41:24;5.00;;;1.60;;
13325;SDS011;6732;51.044;3.746;2022-08-19T13:43:52;6.25;;;1.73;;
13325;SDS011;6732;51.044;3.746;2022-08-19T13:46:18;3.45;;;1.40;;
13325;SDS011;6732;51.044;3.746;2022-08-19T13:48:45;2.30;;;1.45;;
13325;SDS011;6732;51.044;3.746;2022-08-19T13:51:13;4.05;;;1.55;;
13325;SDS011;6732;51.044;3.746;2022-08-19T13:53:43;5.18;;;1.60;;
13325;SDS011;6732;51.044;3.746;2022-08-19T13:56:10;4.88;;;1.42;;
13325;SDS011;6732;51.044;3.746;2022-08-19T13:58:38;2.75;;;1.30;;
13325;SDS011;6732;51.044;3.746;2022-08-19T14:01:05;4.07;;;1.58;;
13325;SDS011;6732;51.044;3.746;2022-08-19T14:03:32;4.20;;;1.40;;
13325;SDS011;6732;51.044;3.746;2022-08-19T14:05:59;2.67;;;1.65;;
13325;SDS011;6732;51.044;3.746;2022-08-19T14:08:25;2.95;;;1.60;;
13325;SDS011;6732;51.044;3.746;2022-08-19T14:10:56;2.60;;;1.75;;
13325;SDS011;6732;51.044;3.746;2022-08-19T14:13:22;3.42;;;1.80;;
13325;SDS011;6732;51.044;3.746;2022-08-19T14:15:49;4.05;;;2.03;;
13325;SDS011;6732;51.044;3.746;2022-08-19T14:18:16;5.00;;;2.33;;
13325;SDS011;6732;51.044;3.746;2022-08-19T14:20:43;2.38;;;2.10;;
13325;SDS011;6732;51.044;3.746;2022-08-19T14:23:09;4.35;;;2.30;;
13325;SDS011;6732;51.044;3.746;2022-08-19T14:25:37;5.95;;;3.10;;
13325;SDS011;6732;51.044;3.746;2022-08-19T14:28:03;5.28;;;3.05;;
13325;SDS011;6732;51.044;3.746;2022-08-19T14:30:30;4.97;;;2.90;;
13325;SDS011;6732;51.044;3.746;2022-08-19T14:32:59;4.57;;;2.90;;
13325;SDS011;6732;51.044;3.746;2022-08-19T14:35:26;7.35;;;3.20;;
13325;SDS011;6732;51.044;3.746;2022-08-19T14:37:54;5.10;;;4.07;;
13325;SDS011;6732;51.044;3.746;2022-08-19T14:40:21;4.57;;;3.40;;
13325;SDS011;6732;51.044;3.746;2022-08-19T14:42:52;5.57;;;3.80;;
13325;SDS011;6732;51.044;3.746;2022-08-19T14:45:25;3.97;;;3.58;;
13325;SDS011;6732;51.044;3.746;2022-08-19T14:47:52;8.13;;;3.88;;
13325;SDS011;6732;51.044;3.746;2022-08-19T14:50:19;6.05;;;4.32;;
13325;SDS011;6732;51.044;3.746;2022-08-19T14:52:45;6.85;;;5.05;;
13325;SDS011;6732;51.044;3.746;2022-08-19T14:55:17;7.43;;;5.55;;
13325;SDS011;6732;51.044;3.746;2022-08-19T14:57:43;8.98;;;5.50;;
13325;SDS011;6732;51.044;3.746;2022-08-19T15:00:10;7.57;;;5.50;;
13325;SDS011;6732;51.044;3.746;2022-08-19T15:02:38;8.20;;;5.80;;
13325;SDS011;6732;51.044;3.746;2022-08-19T15:05:05;8.27;;;6.13;;
13325;SDS011;6732;51.044;3.746;2022-08-19T15:07:31;6.20;;;5.60;;
13325;SDS011;6732;51.044;3.746;2022-08-19T15:09:57;6.90;;;5.10;;
13325;SDS011;6732;51.044;3.746;2022-08-19T15:12:24;6.57;;;5.50;;